Terminal Aerodrome Forecast
Issued by NWS

Current Version | Previous Version | Text Only | Print | Product List | Glossary On
Versions: 1 2 3 4 5 6 7 8 9 10 11 12 13
758
FTUS42 KTAE 161120
TAFDHN
TAF
KDHN 161120Z 1612/1712 VRB04KT P6SM SCT250
     FM170200 32012G18KT P6SM OVC040
     FM170600 34013G20KT P6SM -SN OVC040=

USA.gov is the U.S. government's official web portal to all federal, state and local government web resources and services.